Latest Weather Observations for Newman Airport

IDW60801

Issued at 3:35 pm WST Thursday 31 July 2014 (issued every 30 minutes, with the page automatically refreshed every 10 minutes)

About weather observations | Map of weather stations | Latest weather observations for WA | Other Formats
Station Details ID: 007176 Name: NEWMAN AERO Lat: -23.42 Lon: 119.80 Height: 524.0 m
Data from the previous 72 hours. | See also: Recent months at Newman Airport
Date/Time
WST
Temp
°C
App
Temp
°C
Dew
Point
Rel
Hum
%
Delta-T
°C
Wind Press
QNH
hPa
Press
MSL
hPa
Rain
since 9 am
mm
Dir
 
Spd
km/h
Gust
km/h
Spd
kts
Gust
kts
31/03:30pm 26.3 21.2 0.9 19 12.3 S 17 28 9 15 1019.3 - 0.0
31/03:00pm 25.2 20.5 0.7 20 11.7 S 15 24 8 13 1019.6 1018.6 0.0
31/02:30pm 26.0 21.4 1.3 20 12.0 S 15 22 8 12 1019.7 - 0.0
31/02:00pm 26.5 21.6 1.7 20 12.2 S 17 28 9 15 1020.0 - 0.0
31/01:30pm 26.0 22.1 1.3 20 12.0 SSE 11 19 6 10 1020.3 - 0.0
31/01:00pm 25.8 22.7 1.2 20 12.0 E 7 13 4 7 1020.5 - 0.0
31/12:30pm 25.5 21.7 1.6 21 11.7 SE 11 20 6 11 1021.0 - 0.0
31/12:00pm 25.4 22.3 1.5 21 11.6 ESE 7 20 4 11 1021.8 1020.9 0.0
31/11:30am 24.8 21.0 1.7 22 11.2 SSE 11 19 6 10 1022.1 - 0.0
31/11:00am 24.0 19.8 1.6 23 10.8 SE 13 20 7 11 1022.6 - 0.0
31/10:30am 22.9 18.3 1.8 25 10.2 SE 15 20 8 11 1022.8 - 0.0
31/10:00am 22.4 17.6 2.5 27 9.7 SSE 17 24 9 13 1023.1 - 0.0
31/09:30am 21.5 17.1 2.7 29 9.1 SE 15 20 8 11 1023.2 - 0.0
31/09:00am 19.2 15.7 3.4 35 7.6 SSE 11 19 6 10 1023.2 1022.4 0.0
31/08:30am 17.5 14.0 3.4 39 6.7 SSE 11 17 6 9 1023.1 - 0.0
31/08:00am 15.0 12.7 4.7 50 5.0 W 6 7 3 4 1023.1 - 0.0
31/07:30am 12.9 10.0 4.8 58 3.8 W 9 11 5 6 1022.8 - 0.0
31/07:00am 10.2 7.8 5.4 72 2.3 W 7 9 4 5 1022.5 - 0.0
31/06:30am 10.1 9.1 5.5 73 2.2 CALM 0 6 0 3 1022.1 - 0.0
31/06:00am 9.6 6.9 5.6 76 1.9 SSW 9 13 5 7 1021.8 1020.9 0.0
31/05:30am 10.1 7.8 5.7 74 2.1 SSW 7 9 4 5 1021.4 - 0.0
31/05:00am 9.9 7.6 5.9 76 1.9 WSW 7 11 4 6 1021.1 - 0.0
31/04:30am 10.1 8.4 5.9 75 2.0 SSW 4 7 2 4 1020.9 - 0.0
31/04:00am 10.4 9.5 6.2 75 2.0 CALM 0 6 0 3 1020.9 - 0.0
31/03:30am 11.1 9.4 5.8 70 2.5 WNW 4 9 2 5 1020.7 - 0.0
31/03:00am 12.4 10.6 5.6 63 3.3 ESE 4 7 2 4 1020.7 1019.8 0.0
31/02:30am 12.5 10.1 5.4 62 3.4 S 7 9 4 5 1020.5 - 0.0
31/02:00am 12.5 10.2 4.7 59 3.7 SW 6 9 3 5 1020.6 - 0.0
31/01:30am 12.9 9.7 5.3 60 3.6 SW 11 17 6 9 1020.9 - 0.0
31/01:00am 12.7 10.6 5.6 62 3.4 WNW 6 7 3 4 1020.7 - 0.0
31/12:30am 13.2 10.9 5.6 60 3.7 W 7 7 4 4 1020.8 - 0.0
31/12:00am 14.0 11.6 5.4 56 4.2 SSW 7 9 4 5 1021.1 1020.2 0.0
 
Date/Time
WST
Temp
°C
App
Temp
°C
Dew
Point
Rel
Hum
%
Delta-T
°C
Wind Press
QNH
hPa
Press
MSL
hPa
Rain
since 9 am
mm
Dir
 
Spd
km/h
Gust
km/h
Spd
kts
Gust
kts
30/11:30pm 14.2 12.0 6.1 58 4.0 SW 7 7 4 4 1020.9 - 0.0
30/11:00pm 13.8 11.3 6.4 61 3.7 W 9 11 5 6 1020.9 - 0.0
30/10:30pm 14.5 13.0 6.6 59 3.9 W 4 7 2 4 1020.9 - 0.0
30/10:00pm 14.5 12.6 6.8 60 3.9 SW 6 7 3 4 1020.8 - 0.0
30/09:30pm 15.5 13.3 6.2 54 4.6 SSW 7 9 4 5 1020.7 - 0.0
30/09:00pm 16.1 15.4 7.1 55 4.6 CALM 0 0 0 0 1020.7 1019.8 0.0
30/08:30pm 17.3 16.2 6.8 50 5.4 S 2 6 1 3 1020.7 - 0.0
30/08:00pm 17.5 16.7 6.7 49 5.5 CALM 0 4 0 2 1020.6 - 0.0
30/07:30pm 20.5 17.9 4.1 34 8.1 E 7 11 4 6 1020.3 - 0.0
30/07:00pm 20.8 18.4 4.4 34 8.2 E 6 7 3 4 1020.1 - 0.0
30/06:30pm 21.9 18.9 4.0 31 8.9 NNE 9 11 5 6 1019.9 - 0.0
30/06:00pm 23.0 21.2 3.5 28 9.7 SE 2 7 1 4 1019.8 1018.9 0.0
30/05:30pm 25.4 22.6 2.2 22 11.4 ESE 6 7 3 4 1019.6 - 0.0
30/05:00pm 26.1 23.1 2.1 21 11.9 ESE 7 9 4 5 1019.6 - 0.0
30/04:30pm 26.7 23.9 1.9 20 12.3 SSW 6 11 3 6 1019.4 - 0.0
30/04:00pm 26.7 23.3 1.9 20 12.3 WNW 9 11 5 6 1019.3 - 0.0
30/03:30pm 26.8 23.0 2.0 20 12.3 SW 11 17 6 9 1019.6 - 0.0
30/03:00pm 26.8 23.4 2.0 20 12.3 N 9 15 5 8 1019.8 1018.9 0.0
30/02:30pm 26.9 23.5 2.1 20 12.3 NNE 9 15 5 8 1019.9 - 0.0
30/02:00pm 26.7 24.0 2.6 21 12.1 S 6 17 3 9 1020.1 - 0.0
30/01:30pm 26.6 22.9 2.5 21 12.0 WNW 11 17 6 9 1020.4 - 0.0
30/01:00pm 26.0 22.2 2.0 21 11.8 N 11 20 6 11 1020.9 - 0.0
30/12:30pm 25.9 22.3 3.2 23 11.4 NE 11 19 6 10 1021.4 - 0.0
30/12:00pm 25.0 20.7 3.0 24 10.9 NE 15 24 8 13 1022.0 1021.1 0.0
30/11:30am 24.5 20.7 3.8 26 10.5 NE 13 20 7 11 1022.6 - 0.0
30/11:00am 24.0 19.8 3.9 27 10.1 NE 15 22 8 12 1022.9 - 0.0
30/10:30am 23.0 19.4 5.0 31 9.2 NE 13 20 7 11 1023.2 - 0.0
30/10:00am 20.9 18.6 5.7 37 7.8 NNE 7 11 4 6 1023.7 - 0.0
30/09:30am 19.9 17.7 6.3 41 7.0 ENE 7 11 4 6 1023.9 - 0.0
30/09:00am 18.0 15.7 5.9 45 6.1 E 7 13 4 7 1024.0 1023.1 0.0
30/08:30am 16.5 14.7 5.5 48 5.4 ESE 4 9 2 5 1023.9 - 0.0
30/08:00am 13.8 13.0 6.4 61 3.7 CALM 0 0 0 0 1023.8 - 0.0
30/07:30am 10.9 9.9 5.7 70 2.5 CALM 0 0 0 0 1023.4 - 0.0
30/07:00am 8.8 6.4 5.4 79 1.6 WSW 7 9 4 5 1023.1 - 0.0
30/06:30am 8.7 5.9 5.1 78 1.7 WSW 9 9 5 5 1022.9 - 0.0
30/06:00am 8.8 6.4 5.2 78 1.7 W 7 9 4 5 1022.5 1021.6 0.0
30/05:30am 8.8 6.4 5.2 78 1.7 WSW 7 9 4 5 1022.3 - 0.0
30/05:00am 9.1 6.8 5.7 79 1.6 WSW 7 9 4 5 1021.9 - 0.0
30/04:30am 9.2 6.9 5.8 79 1.6 WSW 7 9 4 5 1021.8 - 0.0
30/04:00am 9.6 7.3 5.8 77 1.8 WSW 7 9 4 5 1021.9 - 0.0
30/03:30am 9.6 7.4 6.1 79 1.7 WSW 7 9 4 5 1021.9 - 0.0
30/03:00am 9.8 8.2 6.5 80 1.6 SW 4 9 2 5 1021.8 1020.9 0.0
30/02:30am 10.1 9.3 6.6 79 1.7 CALM 0 0 0 0 1021.9 - 0.0
30/02:00am 10.4 9.7 6.9 79 1.7 CALM 0 0 0 0 1022.0 - 0.0
30/01:30am 10.9 10.2 6.8 76 2.0 CALM 0 0 0 0 1022.1 - 0.0
30/01:00am 11.2 10.4 6.7 74 2.2 CALM 0 0 0 0 1022.1 - 0.0
30/12:30am 11.5 10.8 6.8 73 2.3 CALM 0 0 0 0 1022.1 - 0.0
30/12:00am 12.0 10.2 7.3 73 2.3 SSW 6 7 3 4 1022.2 1021.3 0.0
 
Date/Time
WST
Temp
°C
App
Temp
°C
Dew
Point
Rel
Hum
%
Delta-T
°C
Wind Press
QNH
hPa
Press
MSL
hPa
Rain
since 9 am
mm
Dir
 
Spd
km/h
Gust
km/h
Spd
kts
Gust
kts
29/11:30pm 12.5 11.4 7.0 69 2.7 SSW 2 7 1 4 1022.5 - 0.0
29/11:00pm 13.0 11.1 6.8 66 3.1 SSW 6 7 3 4 1022.6 - 0.0
29/10:30pm 14.0 12.9 7.1 63 3.5 S 2 6 1 3 1022.7 - 0.0
29/10:00pm 15.1 12.9 6.1 55 4.5 SE 7 9 4 5 1022.8 - 0.0
29/09:30pm 15.3 13.7 6.3 55 4.5 E 4 6 2 3 1022.7 - 0.0
29/09:00pm 16.1 15.3 6.3 52 4.9 CALM 0 0 0 0 1022.7 1021.8 0.0
29/08:30pm 16.7 15.8 5.9 49 5.4 CALM 0 6 0 3 1022.7 - 0.0
29/08:00pm 18.5 16.1 5.4 42 6.6 ESE 7 11 4 6 1022.5 - 0.0
29/07:30pm 19.5 17.0 4.8 38 7.3 NE 7 9 4 5 1022.2 - 0.0
29/07:00pm 21.6 18.4 2.8 29 9.1 E 9 11 5 6 1022.0 - 0.0
29/06:30pm 20.8 19.2 6.4 39 7.5 E 4 7 2 4 1021.8 - 0.0
29/06:00pm 23.4 20.5 2.8 26 10.1 ENE 7 9 4 5 1021.6 1020.7 0.0
29/05:30pm 24.7 21.9 2.2 23 11.0 E 6 9 3 5 1021.3 - 0.0
29/05:00pm 25.5 22.5 2.2 22 11.5 ENE 7 11 4 6 1021.1 - 0.0
29/04:30pm 26.1 23.1 2.1 21 11.9 WNW 7 13 4 7 1020.9 - 0.0
29/04:00pm 26.4 23.4 1.7 20 12.2 NE 7 11 4 6 1020.8 - 0.0
29/03:30pm 26.5 23.5 1.7 20 12.2 SW 7 11 4 6 1020.7 - 0.0
29/03:00pm 26.2 22.7 1.5 20 12.1 N 9 15 5 8 1020.8 1019.9 0.0
29/02:30pm 26.6 23.6 1.8 20 12.2 NW 7 15 4 8 1020.8 - 0.0
29/02:00pm 25.9 22.0 1.2 20 12.0 NE 11 17 6 9 1021.0 - 0.0
29/01:30pm 25.5 21.7 1.6 21 11.7 ESE 11 19 6 10 1021.2 - 0.0
29/01:00pm 25.4 21.9 1.5 21 11.6 ESE 9 13 5 7 1021.6 - 0.0
29/12:30pm 25.3 21.8 1.4 21 11.6 NE 9 19 5 10 1022.1 - 0.0
29/12:00pm 24.5 20.3 1.4 22 11.1 E 13 20 7 11 1022.6 1021.7 0.0
29/11:30am 24.0 20.4 2.8 25 10.5 E 11 19 6 10 1022.9 - 0.0
29/11:00am 23.2 19.2 2.7 26 10.1 ENE 13 20 7 11 1023.4 - 0.0
29/10:30am 22.2 17.4 2.8 28 9.5 ENE 17 22 9 12 1023.8 - 0.0
29/10:00am 20.8 16.5 3.1 31 8.6 ENE 15 20 8 11 1024.2 - 0.0
29/09:30am 19.4 14.7 3.2 34 7.8 E 17 20 9 11 1024.4 - 0.0
29/09:00am 18.3 14.5 3.8 38 7.0 E 13 19 7 10 1024.3 1023.4 0.0
29/08:30am 15.8 13.8 4.2 46 5.6 S 4 7 2 4 1024.1 - 0.0
29/08:00am 13.6 11.4 5.3 57 4.0 W 6 7 3 4 1023.8 - 0.0
29/07:30am 11.2 8.7 4.9 65 3.0 W 7 9 4 5 1023.3 - 0.0
29/07:00am 8.2 5.4 5.0 80 1.5 W 9 11 5 6 1022.9 - 0.0
29/06:30am 8.1 5.8 4.7 79 1.5 WSW 6 7 3 4 1022.6 - 0.0
29/06:00am 8.7 7.5 4.5 75 1.9 CALM 0 0 0 0 1022.4 1021.5 0.0
29/05:30am 8.9 6.9 4.3 73 2.1 SW 4 7 2 4 1022.2 - 0.0
29/05:00am 9.2 6.7 4.6 73 2.1 W 7 7 4 4 1022.3 - 0.0
29/04:30am 9.2 6.7 4.6 73 2.1 WSW 7 9 4 5 1022.1 - 0.0
29/04:00am 10.0 7.5 4.6 69 2.5 S 7 9 4 5 1022.0 - 0.0
29/03:30am 10.5 8.1 4.4 66 2.8 W 6 7 3 4 1022.1 - 0.0
29/03:00am 10.4 7.9 5.0 69 2.5 WNW 7 9 4 5 1022.1 1021.2 0.0
29/02:30am 10.8 9.6 4.7 66 2.8 CALM 0 0 0 0 1022.1 - 0.0
29/02:00am 11.6 10.4 4.6 62 3.3 CALM 0 0 0 0 1022.1 - 0.0
29/01:30am 11.0 9.1 4.9 66 2.9 W 4 7 2 4 1022.2 - 0.0
29/01:00am 13.3 10.7 4.2 54 4.3 S 7 9 4 5 1022.2 - 0.0
29/12:30am 12.0 9.1 4.5 60 3.5 SW 9 11 5 6 1022.2 - 0.0
29/12:00am 12.8 9.5 4.3 56 4.0 SW 11 13 6 7 1022.1 1021.2 0.0
 
Date/Time
WST
Temp
°C
App
Temp
°C
Dew
Point
Rel
Hum
%
Delta-T
°C
Wind Press
QNH
hPa
Press
MSL
hPa
Rain
since 9 am
mm
Dir
 
Spd
km/h
Gust
km/h
Spd
kts
Gust
kts
28/11:30pm 12.4 10.3 5.8 64 3.2 WSW 6 13 3 7 1022.1 - 0.0
28/11:00pm 13.6 12.2 5.5 58 3.9 W 2 7 1 4 1022.0 - 0.0
28/10:30pm 14.2 11.8 5.3 55 4.3 W 7 9 4 5 1022.1 - 0.0
28/10:00pm 14.3 11.7 5.9 57 4.1 W 9 11 5 6 1022.0 - 0.0
28/09:30pm 14.7 12.6 5.8 55 4.4 WNW 6 9 3 5 1022.0 - 0.0
28/09:00pm 16.5 14.3 5.5 48 5.4 E 6 9 3 5 1021.8 1020.9 0.0
28/08:30pm 16.8 14.3 4.8 45 5.9 SE 7 9 4 5 1021.8 - 0.0
28/08:00pm 17.5 14.9 4.1 41 6.5 SE 7 9 4 5 1021.6 - 0.0
28/07:30pm 18.8 16.0 3.4 36 7.4 ESE 7 9 4 5 1021.3 - 0.0
28/07:00pm 20.0 16.5 3.3 33 8.1 SE 11 15 6 8 1021.1 - 0.0
28/06:30pm 20.9 19.4 3.2 31 8.6 CALM 0 7 0 4 1020.8 - 0.0
28/06:00pm 22.6 19.6 2.1 26 9.9 SE 7 11 4 6 1020.6 1019.7 0.0
28/05:30pm 24.0 22.3 1.6 23 10.8 CALM 0 0 0 0 1020.4 - 0.0
28/05:00pm 25.3 21.8 1.4 21 11.6 NW 9 13 5 7 1020.2 - 0.0
28/04:30pm 25.5 22.3 0.9 20 11.9 NNW 7 11 4 6 1020.0 - 0.0
28/04:00pm 25.8 22.7 1.2 20 12.0 NNE 7 19 4 10 1019.8 - 0.0

Other Formats:

Comma delimited format used in spreadsheet applications
http://www.bom.gov.au/fwo/IDW60801/IDW60801.94317.axf

JavaScript Object Notation format (JSON) in row-major order
http://www.bom.gov.au/fwo/IDW60801/IDW60801.94317.json